sensor_id;sensor_type;location;lat;lon;timestamp;P1;durP1;ratioP1;P2;durP2;ratioP2
75465;SDS011;64049;46.290;44.240;2023-08-31T00:00:54;13.10;;;5.53;;
75465;SDS011;64049;46.290;44.240;2023-08-31T00:03:19;9.63;;;4.70;;
75465;SDS011;64049;46.290;44.240;2023-08-31T00:05:45;14.38;;;4.88;;
75465;SDS011;64049;46.290;44.240;2023-08-31T00:08:12;14.65;;;5.40;;
75465;SDS011;64049;46.290;44.240;2023-08-31T00:10:38;11.68;;;5.57;;
75465;SDS011;64049;46.290;44.240;2023-08-31T00:13:04;16.00;;;5.65;;
75465;SDS011;64049;46.290;44.240;2023-08-31T00:15:34;13.65;;;5.10;;
75465;SDS011;64049;46.290;44.240;2023-08-31T00:18:04;12.07;;;5.78;;
75465;SDS011;64049;46.290;44.240;2023-08-31T00:20:30;10.68;;;4.75;;
75465;SDS011;64049;46.290;44.240;2023-08-31T00:22:56;13.30;;;5.32;;
75465;SDS011;64049;46.290;44.240;2023-08-31T00:25:23;8.68;;;4.65;;
75465;SDS011;64049;46.290;44.240;2023-08-31T00:27:49;15.35;;;4.80;;
75465;SDS011;64049;46.290;44.240;2023-08-31T00:30:17;12.60;;;4.55;;
75465;SDS011;64049;46.290;44.240;2023-08-31T00:32:44;11.90;;;4.80;;
75465;SDS011;64049;46.290;44.240;2023-08-31T00:35:12;11.30;;;4.90;;
75465;SDS011;64049;46.290;44.240;2023-08-31T00:37:38;11.32;;;4.97;;
75465;SDS011;64049;46.290;44.240;2023-08-31T00:40:04;17.02;;;4.75;;
75465;SDS011;64049;46.290;44.240;2023-08-31T00:42:32;14.10;;;4.45;;
75465;SDS011;64049;46.290;44.240;2023-08-31T00:44:58;9.15;;;4.88;;
75465;SDS011;64049;46.290;44.240;2023-08-31T00:47:25;9.23;;;4.55;;
75465;SDS011;64049;46.290;44.240;2023-08-31T00:49:52;11.88;;;4.72;;
75465;SDS011;64049;46.290;44.240;2023-08-31T00:52:18;9.15;;;4.03;;
75465;SDS011;64049;46.290;44.240;2023-08-31T00:54:46;8.93;;;4.90;;
75465;SDS011;64049;46.290;44.240;2023-08-31T00:57:17;9.80;;;4.20;;
75465;SDS011;64049;46.290;44.240;2023-08-31T00:59:42;10.52;;;4.82;;
75465;SDS011;64049;46.290;44.240;2023-08-31T01:02:16;8.77;;;3.85;;
75465;SDS011;64049;46.290;44.240;2023-08-31T01:04:58;8.93;;;4.22;;
75465;SDS011;64049;46.290;44.240;2023-08-31T01:07:39;9.57;;;3.92;;
75465;SDS011;64049;46.290;44.240;2023-08-31T01:13:19;10.95;;;4.35;;
75465;SDS011;64049;46.290;44.240;2023-08-31T01:15:50;8.85;;;3.97;;
75465;SDS011;64049;46.290;44.240;2023-08-31T01:18:21;9.23;;;3.47;;
75465;SDS011;64049;46.290;44.240;2023-08-31T01:23:27;11.13;;;3.90;;
75465;SDS011;64049;46.290;44.240;2023-08-31T01:25:59;8.40;;;3.42;;
75465;SDS011;64049;46.290;44.240;2023-08-31T01:28:25;10.18;;;3.92;;
75465;SDS011;64049;46.290;44.240;2023-08-31T01:30:52;9.07;;;4.35;;
75465;SDS011;64049;46.290;44.240;2023-08-31T01:33:18;11.93;;;4.15;;
75465;SDS011;64049;46.290;44.240;2023-08-31T01:35:46;15.88;;;4.00;;
75465;SDS011;64049;46.290;44.240;2023-08-31T01:38:15;9.95;;;3.55;;
75465;SDS011;64049;46.290;44.240;2023-08-31T01:40:47;11.38;;;4.38;;
75465;SDS011;64049;46.290;44.240;2023-08-31T01:43:25;15.52;;;4.00;;
75465;SDS011;64049;46.290;44.240;2023-08-31T01:48:19;7.70;;;3.00;;
75465;SDS011;64049;46.290;44.240;2023-08-31T01:50:44;14.68;;;4.20;;
75465;SDS011;64049;46.290;44.240;2023-08-31T01:53:12;7.50;;;3.78;;
75465;SDS011;64049;46.290;44.240;2023-08-31T01:55:39;8.35;;;3.55;;
75465;SDS011;64049;46.290;44.240;2023-08-31T01:58:04;9.77;;;3.92;;
75465;SDS011;64049;46.290;44.240;2023-08-31T02:00:30;9.40;;;3.80;;
75465;SDS011;64049;46.290;44.240;2023-08-31T02:03:00;9.80;;;3.78;;
75465;SDS011;64049;46.290;44.240;2023-08-31T02:05:26;8.75;;;3.05;;
75465;SDS011;64049;46.290;44.240;2023-08-31T02:07:52;10.38;;;3.50;;
75465;SDS011;64049;46.290;44.240;2023-08-31T02:10:18;10.32;;;3.88;;
75465;SDS011;64049;46.290;44.240;2023-08-31T02:12:44;7.07;;;3.80;;
75465;SDS011;64049;46.290;44.240;2023-08-31T02:15:10;8.88;;;3.53;;
75465;SDS011;64049;46.290;44.240;2023-08-31T02:17:36;7.43;;;3.30;;
75465;SDS011;64049;46.290;44.240;2023-08-31T02:20:02;13.95;;;4.07;;
75465;SDS011;64049;46.290;44.240;2023-08-31T02:22:38;8.65;;;3.58;;
75465;SDS011;64049;46.290;44.240;2023-08-31T02:25:05;10.68;;;3.38;;
75465;SDS011;64049;46.290;44.240;2023-08-31T02:27:31;8.65;;;3.25;;
75465;SDS011;64049;46.290;44.240;2023-08-31T02:29:57;12.65;;;3.42;;
75465;SDS011;64049;46.290;44.240;2023-08-31T02:32:23;5.70;;;2.85;;
75465;SDS011;64049;46.290;44.240;2023-08-31T02:34:50;8.07;;;3.75;;
75465;SDS011;64049;46.290;44.240;2023-08-31T02:37:15;8.05;;;3.38;;
75465;SDS011;64049;46.290;44.240;2023-08-31T02:39:43;8.00;;;4.50;;
75465;SDS011;64049;46.290;44.240;2023-08-31T02:42:09;9.90;;;4.00;;
75465;SDS011;64049;46.290;44.240;2023-08-31T02:44:35;8.35;;;3.30;;
75465;SDS011;64049;46.290;44.240;2023-08-31T02:47:00;8.55;;;3.67;;
75465;SDS011;64049;46.290;44.240;2023-08-31T02:49:27;12.18;;;3.30;;
75465;SDS011;64049;46.290;44.240;2023-08-31T02:51:55;10.38;;;2.88;;
75465;SDS011;64049;46.290;44.240;2023-08-31T02:54:21;17.27;;;3.60;;
75465;SDS011;64049;46.290;44.240;2023-08-31T02:56:47;7.43;;;3.00;;
75465;SDS011;64049;46.290;44.240;2023-08-31T02:59:13;19.10;;;3.72;;
75465;SDS011;64049;46.290;44.240;2023-08-31T03:01:39;6.15;;;2.38;;
75465;SDS011;64049;46.290;44.240;2023-08-31T03:04:05;11.18;;;3.55;;
75465;SDS011;64049;46.290;44.240;2023-08-31T03:06:32;8.98;;;3.70;;
75465;SDS011;64049;46.290;44.240;2023-08-31T03:08:58;8.55;;;2.65;;
75465;SDS011;64049;46.290;44.240;2023-08-31T03:11:24;11.40;;;3.67;;
75465;SDS011;64049;46.290;44.240;2023-08-31T03:13:50;6.40;;;3.15;;
75465;SDS011;64049;46.290;44.240;2023-08-31T03:16:15;8.80;;;3.28;;
75465;SDS011;64049;46.290;44.240;2023-08-31T03:18:41;7.60;;;3.33;;
75465;SDS011;64049;46.290;44.240;2023-08-31T03:21:07;8.90;;;3.08;;
75465;SDS011;64049;46.290;44.240;2023-08-31T03:23:34;10.88;;;3.28;;
75465;SDS011;64049;46.290;44.240;2023-08-31T03:26:06;12.63;;;3.13;;
75465;SDS011;64049;46.290;44.240;2023-08-31T03:28:32;12.40;;;4.13;;
75465;SDS011;64049;46.290;44.240;2023-08-31T03:30:59;11.65;;;3.90;;
75465;SDS011;64049;46.290;44.240;2023-08-31T03:33:25;13.18;;;3.50;;
75465;SDS011;64049;46.290;44.240;2023-08-31T03:35:53;12.10;;;3.92;;
75465;SDS011;64049;46.290;44.240;2023-08-31T03:38:19;12.93;;;3.45;;
75465;SDS011;64049;46.290;44.240;2023-08-31T03:40:54;13.18;;;4.13;;
75465;SDS011;64049;46.290;44.240;2023-08-31T03:43:21;11.77;;;3.78;;
75465;SDS011;64049;46.290;44.240;2023-08-31T03:45:46;9.77;;;4.00;;
75465;SDS011;64049;46.290;44.240;2023-08-31T03:48:12;7.20;;;3.00;;
75465;SDS011;64049;46.290;44.240;2023-08-31T03:50:39;7.53;;;2.95;;
75465;SDS011;64049;46.290;44.240;2023-08-31T03:53:05;7.18;;;3.05;;
75465;SDS011;64049;46.290;44.240;2023-08-31T03:55:32;6.28;;;2.58;;
75465;SDS011;64049;46.290;44.240;2023-08-31T03:57:58;6.50;;;2.40;;
75465;SDS011;64049;46.290;44.240;2023-08-31T04:00:24;10.25;;;3.22;;
75465;SDS011;64049;46.290;44.240;2023-08-31T04:02:50;11.00;;;2.80;;
75465;SDS011;64049;46.290;44.240;2023-08-31T04:05:22;9.13;;;2.88;;
75465;SDS011;64049;46.290;44.240;2023-08-31T04:07:48;10.05;;;2.70;;
75465;SDS011;64049;46.290;44.240;2023-08-31T04:10:14;8.95;;;3.10;;
75465;SDS011;64049;46.290;44.240;2023-08-31T04:12:40;12.82;;;3.75;;
75465;SDS011;64049;46.290;44.240;2023-08-31T04:15:08;6.30;;;2.58;;
75465;SDS011;64049;46.290;44.240;2023-08-31T04:17:35;10.30;;;3.03;;
75465;SDS011;64049;46.290;44.240;2023-08-31T04:20:01;10.65;;;2.92;;
75465;SDS011;64049;46.290;44.240;2023-08-31T04:22:27;6.40;;;2.80;;
75465;SDS011;64049;46.290;44.240;2023-08-31T04:24:53;10.82;;;3.10;;
75465;SDS011;64049;46.290;44.240;2023-08-31T04:27:18;9.88;;;4.00;;
75465;SDS011;64049;46.290;44.240;2023-08-31T04:29:44;6.65;;;3.47;;
75465;SDS011;64049;46.290;44.240;2023-08-31T04:32:10;7.75;;;3.30;;
75465;SDS011;64049;46.290;44.240;2023-08-31T04:34:36;8.02;;;3.90;;
75465;SDS011;64049;46.290;44.240;2023-08-31T04:37:02;8.30;;;4.00;;
75465;SDS011;64049;46.290;44.240;2023-08-31T04:39:28;7.97;;;3.92;;
75465;SDS011;64049;46.290;44.240;2023-08-31T04:41:54;6.85;;;3.78;;
75465;SDS011;64049;46.290;44.240;2023-08-31T04:44:19;11.10;;;3.90;;
75465;SDS011;64049;46.290;44.240;2023-08-31T04:46:45;7.10;;;3.67;;
75465;SDS011;64049;46.290;44.240;2023-08-31T04:49:14;11.95;;;3.70;;
75465;SDS011;64049;46.290;44.240;2023-08-31T04:51:40;7.45;;;3.83;;
75465;SDS011;64049;46.290;44.240;2023-08-31T04:54:07;10.25;;;4.05;;
75465;SDS011;64049;46.290;44.240;2023-08-31T04:56:33;8.45;;;4.35;;
75465;SDS011;64049;46.290;44.240;2023-08-31T04:58:59;9.95;;;4.00;;
75465;SDS011;64049;46.290;44.240;2023-08-31T05:01:26;13.80;;;4.40;;
75465;SDS011;64049;46.290;44.240;2023-08-31T05:03:53;9.40;;;4.63;;
75465;SDS011;64049;46.290;44.240;2023-08-31T05:06:19;9.57;;;4.30;;
75465;SDS011;64049;46.290;44.240;2023-08-31T05:08:46;11.75;;;4.80;;
75465;SDS011;64049;46.290;44.240;2023-08-31T05:11:13;9.18;;;4.47;;
75465;SDS011;64049;46.290;44.240;2023-08-31T05:13:39;9.30;;;3.80;;
75465;SDS011;64049;46.290;44.240;2023-08-31T05:16:10;11.27;;;4.45;;
75465;SDS011;64049;46.290;44.240;2023-08-31T05:18:37;9.52;;;4.47;;
75465;SDS011;64049;46.290;44.240;2023-08-31T05:21:03;9.80;;;4.25;;
75465;SDS011;64049;46.290;44.240;2023-08-31T05:23:29;10.75;;;4.25;;
75465;SDS011;64049;46.290;44.240;2023-08-31T05:25:56;8.27;;;4.32;;
75465;SDS011;64049;46.290;44.240;2023-08-31T05:28:22;7.70;;;4.47;;
75465;SDS011;64049;46.290;44.240;2023-08-31T05:30:49;13.35;;;4.40;;
75465;SDS011;64049;46.290;44.240;2023-08-31T05:33:16;8.27;;;4.35;;
75465;SDS011;64049;46.290;44.240;2023-08-31T05:35:42;12.10;;;5.07;;
75465;SDS011;64049;46.290;44.240;2023-08-31T05:38:08;9.30;;;4.30;;
75465;SDS011;64049;46.290;44.240;2023-08-31T05:40:34;11.02;;;4.68;;
75465;SDS011;64049;46.290;44.240;2023-08-31T05:43:00;9.05;;;5.50;;
75465;SDS011;64049;46.290;44.240;2023-08-31T05:45:31;12.43;;;7.22;;
75465;SDS011;64049;46.290;44.240;2023-08-31T05:47:58;13.32;;;6.53;;
75465;SDS011;64049;46.290;44.240;2023-08-31T05:50:23;12.18;;;6.05;;
75465;SDS011;64049;46.290;44.240;2023-08-31T05:52:50;9.70;;;6.07;;
75465;SDS011;64049;46.290;44.240;2023-08-31T05:55:16;12.57;;;6.75;;
75465;SDS011;64049;46.290;44.240;2023-08-31T05:57:42;12.10;;;7.43;;
75465;SDS011;64049;46.290;44.240;2023-08-31T06:00:08;16.13;;;9.40;;
75465;SDS011;64049;46.290;44.240;2023-08-31T06:02:37;14.30;;;8.65;;
75465;SDS011;64049;46.290;44.240;2023-08-31T06:05:04;17.05;;;7.38;;
75465;SDS011;64049;46.290;44.240;2023-08-31T06:09:57;10.68;;;7.35;;
75465;SDS011;64049;46.290;44.240;2023-08-31T06:12:23;15.23;;;7.43;;
75465;SDS011;64049;46.290;44.240;2023-08-31T06:14:49;15.93;;;9.70;;
75465;SDS011;64049;46.290;44.240;2023-08-31T06:17:15;13.88;;;8.15;;
75465;SDS011;64049;46.290;44.240;2023-08-31T06:19:41;13.98;;;8.90;;
75465;SDS011;64049;46.290;44.240;2023-08-31T06:24:34;15.60;;;9.77;;
75465;SDS011;64049;46.290;44.240;2023-08-31T06:29:48;16.33;;;11.52;;
75465;SDS011;64049;46.290;44.240;2023-08-31T06:32:15;16.13;;;10.68;;
75465;SDS011;64049;46.290;44.240;2023-08-31T06:34:42;18.80;;;11.35;;
75465;SDS011;64049;46.290;44.240;2023-08-31T06:37:08;19.63;;;11.25;;
75465;SDS011;64049;46.290;44.240;2023-08-31T06:39:36;16.00;;;11.40;;
75465;SDS011;64049;46.290;44.240;2023-08-31T06:42:03;17.40;;;10.75;;
75465;SDS011;64049;46.290;44.240;2023-08-31T06:44:30;20.30;;;11.65;;
75465;SDS011;64049;46.290;44.240;2023-08-31T06:46:56;14.45;;;9.23;;
75465;SDS011;64049;46.290;44.240;2023-08-31T06:49:43;18.73;;;10.43;;
75465;SDS011;64049;46.290;44.240;2023-08-31T06:55:58;17.25;;;11.02;;
75465;SDS011;64049;46.290;44.240;2023-08-31T06:58:24;16.92;;;9.52;;
75465;SDS011;64049;46.290;44.240;2023-08-31T07:00:50;14.15;;;10.57;;
75465;SDS011;64049;46.290;44.240;2023-08-31T07:03:31;24.08;;;11.00;;
75465;SDS011;64049;46.290;44.240;2023-08-31T07:06:02;20.88;;;10.23;;
75465;SDS011;64049;46.290;44.240;2023-08-31T07:08:28;17.98;;;10.73;;
75465;SDS011;64049;46.290;44.240;2023-08-31T07:10:55;16.13;;;9.65;;
75465;SDS011;64049;46.290;44.240;2023-08-31T07:13:21;18.08;;;10.18;;
75465;SDS011;64049;46.290;44.240;2023-08-31T07:15:47;20.70;;;10.60;;
75465;SDS011;64049;46.290;44.240;2023-08-31T07:18:15;16.70;;;10.10;;
75465;SDS011;64049;46.290;44.240;2023-08-31T07:20:41;22.08;;;10.90;;
75465;SDS011;64049;46.290;44.240;2023-08-31T07:23:07;16.55;;;11.10;;
75465;SDS011;64049;46.290;44.240;2023-08-31T07:25:33;15.25;;;9.52;;
75465;SDS011;64049;46.290;44.240;2023-08-31T07:27:58;11.80;;;7.60;;
75465;SDS011;64049;46.290;44.240;2023-08-31T07:30:24;15.93;;;9.27;;
75465;SDS011;64049;46.290;44.240;2023-08-31T07:32:50;27.15;;;10.48;;
75465;SDS011;64049;46.290;44.240;2023-08-31T07:35:16;13.93;;;6.70;;
75465;SDS011;64049;46.290;44.240;2023-08-31T07:37:42;11.43;;;6.40;;
75465;SDS011;64049;46.290;44.240;2023-08-31T07:40:08;10.00;;;5.18;;
75465;SDS011;64049;46.290;44.240;2023-08-31T07:42:35;12.77;;;4.88;;
75465;SDS011;64049;46.290;44.240;2023-08-31T07:45:01;9.88;;;5.45;;
75465;SDS011;64049;46.290;44.240;2023-08-31T07:47:28;11.95;;;6.07;;
75465;SDS011;64049;46.290;44.240;2023-08-31T07:49:53;16.27;;;6.05;;
75465;SDS011;64049;46.290;44.240;2023-08-31T07:52:22;11.98;;;5.13;;
75465;SDS011;64049;46.290;44.240;2023-08-31T07:54:54;9.23;;;4.47;;
75465;SDS011;64049;46.290;44.240;2023-08-31T07:57:20;10.85;;;5.38;;
75465;SDS011;64049;46.290;44.240;2023-08-31T08:02:13;9.43;;;5.82;;
75465;SDS011;64049;46.290;44.240;2023-08-31T08:04:48;9.75;;;6.10;;
75465;SDS011;64049;46.290;44.240;2023-08-31T08:07:13;9.68;;;5.85;;
75465;SDS011;64049;46.290;44.240;2023-08-31T08:09:39;14.63;;;7.82;;
75465;SDS011;64049;46.290;44.240;2023-08-31T08:12:05;15.55;;;7.32;;
75465;SDS011;64049;46.290;44.240;2023-08-31T08:14:32;13.15;;;7.28;;
75465;SDS011;64049;46.290;44.240;2023-08-31T08:16:58;9.88;;;5.82;;
75465;SDS011;64049;46.290;44.240;2023-08-31T08:21:51;10.00;;;6.50;;
75465;SDS011;64049;46.290;44.240;2023-08-31T08:24:23;9.35;;;6.22;;
75465;SDS011;64049;46.290;44.240;2023-08-31T08:26:49;14.32;;;6.97;;
75465;SDS011;64049;46.290;44.240;2023-08-31T08:29:30;14.43;;;7.07;;
75465;SDS011;64049;46.290;44.240;2023-08-31T08:31:59;14.00;;;6.90;;
75465;SDS011;64049;46.290;44.240;2023-08-31T08:34:25;12.82;;;6.15;;
75465;SDS011;64049;46.290;44.240;2023-08-31T08:36:52;12.73;;;5.53;;
75465;SDS011;64049;46.290;44.240;2023-08-31T08:39:18;12.35;;;6.13;;
75465;SDS011;64049;46.290;44.240;2023-08-31T08:41:44;9.70;;;5.90;;
75465;SDS011;64049;46.290;44.240;2023-08-31T08:44:11;11.55;;;6.30;;
75465;SDS011;64049;46.290;44.240;2023-08-31T08:46:42;13.48;;;5.93;;
75465;SDS011;64049;46.290;44.240;2023-08-31T08:49:15;10.93;;;6.35;;
75465;SDS011;64049;46.290;44.240;2023-08-31T08:57:35;10.07;;;5.75;;
75465;SDS011;64049;46.290;44.240;2023-08-31T09:00:01;12.70;;;6.22;;
75465;SDS011;64049;46.290;44.240;2023-08-31T09:02:28;9.30;;;5.80;;
75465;SDS011;64049;46.290;44.240;2023-08-31T09:04:54;9.68;;;5.60;;
75465;SDS011;64049;46.290;44.240;2023-08-31T09:07:21;13.98;;;6.43;;
75465;SDS011;64049;46.290;44.240;2023-08-31T09:09:51;10.88;;;6.07;;
75465;SDS011;64049;46.290;44.240;2023-08-31T09:12:18;9.98;;;6.10;;
75465;SDS011;64049;46.290;44.240;2023-08-31T09:15:02;11.20;;;5.88;;
75465;SDS011;64049;46.290;44.240;2023-08-31T09:17:41;11.60;;;5.72;;
75465;SDS011;64049;46.290;44.240;2023-08-31T09:20:12;14.13;;;6.15;;
75465;SDS011;64049;46.290;44.240;2023-08-31T09:22:40;9.05;;;6.30;;
75465;SDS011;64049;46.290;44.240;2023-08-31T09:25:10;11.90;;;5.93;;
75465;SDS011;64049;46.290;44.240;2023-08-31T09:27:38;11.25;;;6.15;;
75465;SDS011;64049;46.290;44.240;2023-08-31T09:30:06;8.48;;;5.70;;
75465;SDS011;64049;46.290;44.240;2023-08-31T09:32:33;10.00;;;6.05;;
75465;SDS011;64049;46.290;44.240;2023-08-31T09:34:59;11.05;;;5.55;;
75465;SDS011;64049;46.290;44.240;2023-08-31T09:37:28;11.80;;;6.32;;
75465;SDS011;64049;46.290;44.240;2023-08-31T09:39:54;12.85;;;6.80;;
75465;SDS011;64049;46.290;44.240;2023-08-31T09:42:20;11.38;;;7.13;;
75465;SDS011;64049;46.290;44.240;2023-08-31T09:44:45;14.85;;;6.53;;
75465;SDS011;64049;46.290;44.240;2023-08-31T09:47:15;10.05;;;5.72;;
75465;SDS011;64049;46.290;44.240;2023-08-31T09:49:44;11.27;;;6.05;;
75465;SDS011;64049;46.290;44.240;2023-08-31T09:54:37;12.73;;;7.25;;
75465;SDS011;64049;46.290;44.240;2023-08-31T09:57:04;12.73;;;6.97;;
75465;SDS011;64049;46.290;44.240;2023-08-31T09:59:30;15.45;;;7.15;;
75465;SDS011;64049;46.290;44.240;2023-08-31T10:01:57;11.07;;;7.35;;
75465;SDS011;64049;46.290;44.240;2023-08-31T10:04:23;11.85;;;6.82;;
75465;SDS011;64049;46.290;44.240;2023-08-31T10:06:49;12.68;;;7.35;;
75465;SDS011;64049;46.290;44.240;2023-08-31T10:09:16;12.30;;;6.70;;
75465;SDS011;64049;46.290;44.240;2023-08-31T10:11:42;13.55;;;6.90;;
75465;SDS011;64049;46.290;44.240;2023-08-31T10:14:09;13.45;;;6.80;;
75465;SDS011;64049;46.290;44.240;2023-08-31T10:16:39;12.70;;;7.25;;
75465;SDS011;64049;46.290;44.240;2023-08-31T10:19:08;10.95;;;6.80;;
75465;SDS011;64049;46.290;44.240;2023-08-31T10:21:34;12.43;;;6.68;;
75465;SDS011;64049;46.290;44.240;2023-08-31T10:24:00;16.10;;;6.80;;
75465;SDS011;64049;46.290;44.240;2023-08-31T10:26:27;11.27;;;5.63;;
75465;SDS011;64049;46.290;44.240;2023-08-31T10:28:54;11.45;;;6.88;;
75465;SDS011;64049;46.290;44.240;2023-08-31T10:31:22;12.05;;;6.68;;
75465;SDS011;64049;46.290;44.240;2023-08-31T10:36:34;9.50;;;6.63;;
75465;SDS011;64049;46.290;44.240;2023-08-31T10:39:05;10.38;;;6.40;;
75465;SDS011;64049;46.290;44.240;2023-08-31T10:41:32;9.18;;;6.07;;
75465;SDS011;64049;46.290;44.240;2023-08-31T10:44:01;11.45;;;6.40;;
75465;SDS011;64049;46.290;44.240;2023-08-31T10:46:33;12.15;;;6.50;;
75465;SDS011;64049;46.290;44.240;2023-08-31T10:51:31;10.63;;;6.18;;
75465;SDS011;64049;46.290;44.240;2023-08-31T10:56:39;14.98;;;6.82;;
75465;SDS011;64049;46.290;44.240;2023-08-31T10:59:16;16.73;;;6.20;;
75465;SDS011;64049;46.290;44.240;2023-08-31T11:01:58;10.95;;;6.50;;
75465;SDS011;64049;46.290;44.240;2023-08-31T11:04:27;9.48;;;5.85;;
75465;SDS011;64049;46.290;44.240;2023-08-31T11:09:39;9.02;;;5.35;;
75465;SDS011;64049;46.290;44.240;2023-08-31T11:12:06;8.85;;;5.90;;
75465;SDS011;64049;46.290;44.240;2023-08-31T11:14:32;13.63;;;6.68;;
75465;SDS011;64049;46.290;44.240;2023-08-31T11:16:59;10.27;;;5.50;;
75465;SDS011;64049;46.290;44.240;2023-08-31T11:19:26;10.32;;;5.63;;
75465;SDS011;64049;46.290;44.240;2023-08-31T11:21:53;11.55;;;5.93;;
75465;SDS011;64049;46.290;44.240;2023-08-31T11:24:20;9.20;;;5.55;;
75465;SDS011;64049;46.290;44.240;2023-08-31T11:26:50;10.20;;;5.70;;
75465;SDS011;64049;46.290;44.240;2023-08-31T11:29:16;9.02;;;5.50;;
75465;SDS011;64049;46.290;44.240;2023-08-31T11:31:42;13.35;;;5.47;;
75465;SDS011;64049;46.290;44.240;2023-08-31T11:34:12;10.48;;;5.53;;
75465;SDS011;64049;46.290;44.240;2023-08-31T11:36:42;10.23;;;5.85;;
75465;SDS011;64049;46.290;44.240;2023-08-31T11:39:09;20.13;;;6.38;;
75465;SDS011;64049;46.290;44.240;2023-08-31T11:41:36;10.38;;;5.35;;
75465;SDS011;64049;46.290;44.240;2023-08-31T11:44:13;10.25;;;5.45;;
75465;SDS011;64049;46.290;44.240;2023-08-31T11:46:45;10.45;;;5.28;;
75465;SDS011;64049;46.290;44.240;2023-08-31T11:49:15;8.75;;;5.72;;
75465;SDS011;64049;46.290;44.240;2023-08-31T11:51:43;16.27;;;5.63;;
75465;SDS011;64049;46.290;44.240;2023-08-31T11:54:10;10.80;;;5.53;;
75465;SDS011;64049;46.290;44.240;2023-08-31T11:59:09;13.85;;;6.20;;
75465;SDS011;64049;46.290;44.240;2023-08-31T12:01:40;8.05;;;4.75;;
75465;SDS011;64049;46.290;44.240;2023-08-31T12:04:14;12.38;;;5.53;;
75465;SDS011;64049;46.290;44.240;2023-08-31T12:06:51;8.68;;;5.63;;
75465;SDS011;64049;46.290;44.240;2023-08-31T12:09:19;10.30;;;5.68;;
75465;SDS011;64049;46.290;44.240;2023-08-31T12:11:51;10.95;;;5.53;;
75465;SDS011;64049;46.290;44.240;2023-08-31T12:14:19;8.82;;;5.25;;
75465;SDS011;64049;46.290;44.240;2023-08-31T12:16:46;9.63;;;5.43;;
75465;SDS011;64049;46.290;44.240;2023-08-31T12:19:12;11.90;;;5.95;;
75465;SDS011;64049;46.290;44.240;2023-08-31T12:21:38;9.57;;;5.18;;
75465;SDS011;64049;46.290;44.240;2023-08-31T12:24:05;12.18;;;5.97;;
75465;SDS011;64049;46.290;44.240;2023-08-31T12:29:03;8.15;;;5.15;;
75465;SDS011;64049;46.290;44.240;2023-08-31T12:31:32;11.02;;;5.80;;
75465;SDS011;64049;46.290;44.240;2023-08-31T12:33:58;9.43;;;5.45;;
75465;SDS011;64049;46.290;44.240;2023-08-31T12:36:25;11.18;;;5.30;;
75465;SDS011;64049;46.290;44.240;2023-08-31T12:38:51;10.52;;;5.47;;
75465;SDS011;64049;46.290;44.240;2023-08-31T12:41:17;11.15;;;5.85;;
75465;SDS011;64049;46.290;44.240;2023-08-31T12:43:45;10.85;;;5.47;;
75465;SDS011;64049;46.290;44.240;2023-08-31T12:46:11;9.00;;;5.20;;
75465;SDS011;64049;46.290;44.240;2023-08-31T12:48:39;10.45;;;5.32;;
75465;SDS011;64049;46.290;44.240;2023-08-31T12:51:05;9.45;;;5.90;;
75465;SDS011;64049;46.290;44.240;2023-08-31T12:53:31;10.15;;;5.47;;
75465;SDS011;64049;46.290;44.240;2023-08-31T12:55:58;10.30;;;5.88;;
75465;SDS011;64049;46.290;44.240;2023-08-31T12:58:24;8.73;;;5.85;;
75465;SDS011;64049;46.290;44.240;2023-08-31T13:00:50;7.90;;;5.53;;
75465;SDS011;64049;46.290;44.240;2023-08-31T13:03:18;8.95;;;5.60;;
75465;SDS011;64049;46.290;44.240;2023-08-31T13:05:45;7.25;;;5.20;;
75465;SDS011;64049;46.290;44.240;2023-08-31T13:08:10;12.35;;;5.90;;
75465;SDS011;64049;46.290;44.240;2023-08-31T13:10:36;11.38;;;5.72;;
75465;SDS011;64049;46.290;44.240;2023-08-31T13:13:02;8.27;;;4.78;;
75465;SDS011;64049;46.290;44.240;2023-08-31T13:15:28;10.18;;;5.07;;
75465;SDS011;64049;46.290;44.240;2023-08-31T13:17:56;10.15;;;5.55;;
75465;SDS011;64049;46.290;44.240;2023-08-31T13:20:22;9.23;;;4.80;;
75465;SDS011;64049;46.290;44.240;2023-08-31T13:22:48;10.15;;;5.20;;
75465;SDS011;64049;46.290;44.240;2023-08-31T13:25:14;9.77;;;5.28;;
75465;SDS011;64049;46.290;44.240;2023-08-31T13:27:40;8.05;;;5.00;;
75465;SDS011;64049;46.290;44.240;2023-08-31T13:32:32;7.82;;;5.68;;
75465;SDS011;64049;46.290;44.240;2023-08-31T13:34:59;10.00;;;4.78;;
75465;SDS011;64049;46.290;44.240;2023-08-31T13:37:25;10.82;;;5.40;;
75465;SDS011;64049;46.290;44.240;2023-08-31T13:39:51;10.35;;;5.13;;
75465;SDS011;64049;46.290;44.240;2023-08-31T13:42:20;9.13;;;5.00;;
75465;SDS011;64049;46.290;44.240;2023-08-31T13:44:46;8.93;;;5.50;;
75465;SDS011;64049;46.290;44.240;2023-08-31T13:47:12;9.38;;;5.13;;
75465;SDS011;64049;46.290;44.240;2023-08-31T13:49:38;8.25;;;4.57;;
75465;SDS011;64049;46.290;44.240;2023-08-31T13:52:04;7.93;;;5.20;;
75465;SDS011;64049;46.290;44.240;2023-08-31T13:54:31;12.48;;;5.25;;
75465;SDS011;64049;46.290;44.240;2023-08-31T13:56:59;10.18;;;4.95;;
75465;SDS011;64049;46.290;44.240;2023-08-31T13:59:25;10.35;;;5.55;;
75465;SDS011;64049;46.290;44.240;2023-08-31T14:01:53;10.02;;;5.68;;
75465;SDS011;64049;46.290;44.240;2023-08-31T14:04:19;9.23;;;5.15;;
75465;SDS011;64049;46.290;44.240;2023-08-31T14:06:47;7.95;;;4.63;;
75465;SDS011;64049;46.290;44.240;2023-08-31T14:11:39;7.53;;;5.07;;
75465;SDS011;64049;46.290;44.240;2023-08-31T14:14:06;14.20;;;5.35;;
75465;SDS011;64049;46.290;44.240;2023-08-31T14:16:36;10.23;;;5.50;;
75465;SDS011;64049;46.290;44.240;2023-08-31T14:19:03;8.15;;;5.30;;
75465;SDS011;64049;46.290;44.240;2023-08-31T14:21:29;9.45;;;5.60;;
75465;SDS011;64049;46.290;44.240;2023-08-31T14:23:55;8.52;;;4.85;;
75465;SDS011;64049;46.290;44.240;2023-08-31T14:26:24;9.48;;;4.93;;
75465;SDS011;64049;46.290;44.240;2023-08-31T14:28:51;8.25;;;4.93;;
75465;SDS011;64049;46.290;44.240;2023-08-31T14:31:17;10.85;;;5.22;;
75465;SDS011;64049;46.290;44.240;2023-08-31T14:33:44;11.93;;;5.35;;
75465;SDS011;64049;46.290;44.240;2023-08-31T14:36:10;15.85;;;6.40;;
75465;SDS011;64049;46.290;44.240;2023-08-31T14:38:36;9.40;;;5.65;;
75465;SDS011;64049;46.290;44.240;2023-08-31T14:41:02;13.70;;;5.03;;
75465;SDS011;64049;46.290;44.240;2023-08-31T14:43:29;8.48;;;4.80;;
75465;SDS011;64049;46.290;44.240;2023-08-31T14:45:55;12.25;;;5.22;;
75465;SDS011;64049;46.290;44.240;2023-08-31T14:48:21;14.23;;;5.63;;
75465;SDS011;64049;46.290;44.240;2023-08-31T14:50:47;12.80;;;5.65;;
75465;SDS011;64049;46.290;44.240;2023-08-31T14:53:15;10.27;;;5.43;;
75465;SDS011;64049;46.290;44.240;2023-08-31T14:55:40;9.23;;;5.20;;
75465;SDS011;64049;46.290;44.240;2023-08-31T14:58:13;11.10;;;5.28;;
75465;SDS011;64049;46.290;44.240;2023-08-31T15:00:38;11.43;;;5.50;;
75465;SDS011;64049;46.290;44.240;2023-08-31T15:03:04;8.55;;;5.75;;
75465;SDS011;64049;46.290;44.240;2023-08-31T15:05:30;11.27;;;5.28;;
75465;SDS011;64049;46.290;44.240;2023-08-31T15:07:56;18.70;;;6.68;;
75465;SDS011;64049;46.290;44.240;2023-08-31T15:10:22;13.07;;;5.25;;
75465;SDS011;64049;46.290;44.240;2023-08-31T15:12:48;9.73;;;5.38;;
75465;SDS011;64049;46.290;44.240;2023-08-31T15:15:17;13.32;;;5.75;;
75465;SDS011;64049;46.290;44.240;2023-08-31T15:17:43;11.55;;;6.00;;
75465;SDS011;64049;46.290;44.240;2023-08-31T15:20:09;11.68;;;5.57;;